createdAt,value
2019-03-04T00:00:30.549Z,26.20
2019-03-04T00:02:04.690Z,27.33
2019-03-04T00:03:38.402Z,25.87
2019-03-04T00:05:12.037Z,27.07
2019-03-04T00:06:45.663Z,29.47
2019-03-04T00:08:19.581Z,26.27
2019-03-04T00:09:53.793Z,26.27
2019-03-04T00:11:27.425Z,26.67
2019-03-04T00:13:01.047Z,29.97
2019-03-04T00:14:36.145Z,27.07
2019-03-04T00:16:09.762Z,28.43
2019-03-04T00:17:43.983Z,27.07
2019-03-04T00:19:17.675Z,27.53
2019-03-04T00:20:51.692Z,27.70
2019-03-04T00:22:25.351Z,27.57
2019-03-04T00:23:59.057Z,27.73
2019-03-04T00:25:32.955Z,25.97
2019-03-04T00:27:07.092Z,28.27
2019-03-04T00:28:40.706Z,26.30
2019-03-04T00:30:14.353Z,27.73
2019-03-04T00:31:47.978Z,26.90
2019-03-04T00:33:21.999Z,27.60
2019-03-04T00:34:55.610Z,28.73
2019-03-04T00:36:29.249Z,36.17
2019-03-04T00:38:04.046Z,31.97
2019-03-04T00:39:38.025Z,29.27
2019-03-04T00:41:11.743Z,27.40
2019-03-04T00:42:45.532Z,28.30
2019-03-04T00:44:19.258Z,27.73
2019-03-04T00:45:53.197Z,25.80
2019-03-04T00:47:26.996Z,24.97
2019-03-04T00:49:02.272Z,25.13
2019-03-04T00:50:35.909Z,25.10
2019-03-04T00:52:10.037Z,25.83
2019-03-04T00:53:43.717Z,27.03
2019-03-04T00:55:18.167Z,26.40
2019-03-04T00:56:52.314Z,28.57
2019-03-04T00:58:27.893Z,34.57
2019-03-04T01:00:01.600Z,35.63
2019-03-04T01:01:35.249Z,35.43
2019-03-04T01:03:09.478Z,35.67
2019-03-04T01:04:43.612Z,35.10
2019-03-04T01:06:18.261Z,27.43
2019-03-04T01:07:51.902Z,31.97
2019-03-04T01:09:27.711Z,30.10
2019-03-04T01:11:01.970Z,26.47
2019-03-04T01:12:36.111Z,26.50
2019-03-04T01:14:09.750Z,25.47
2019-03-04T01:15:43.400Z,25.00
2019-03-04T01:17:17.792Z,27.13
2019-03-04T01:18:51.481Z,26.30
2019-03-04T01:20:25.190Z,25.37
2019-03-04T01:21:58.888Z,24.00
2019-03-04T01:23:32.889Z,27.80
2019-03-04T01:25:09.584Z,25.57
2019-03-04T01:26:45.839Z,30.07
2019-03-04T01:28:19.862Z,27.03
2019-03-04T01:29:53.799Z,27.37
2019-03-04T01:31:27.451Z,25.97
2019-03-04T01:33:01.132Z,26.90
2019-03-04T01:34:34.760Z,25.90
2019-03-04T01:36:08.802Z,26.20
2019-03-04T01:37:42.535Z,26.13
2019-03-04T01:39:16.201Z,24.83
2019-03-04T01:40:49.836Z,25.57
2019-03-04T01:42:24.002Z,24.87
2019-03-04T01:43:57.991Z,26.27
2019-03-04T01:45:31.623Z,24.47
2019-03-04T01:47:05.351Z,26.07
2019-03-04T01:48:39.294Z,25.30
2019-03-04T01:50:17.230Z,24.83
2019-03-04T01:51:50.891Z,25.63
2019-03-04T01:53:24.612Z,24.43
2019-03-04T01:54:58.880Z,29.43
2019-03-04T01:56:32.622Z,35.77
2019-03-04T01:58:06.347Z,35.27
2019-03-04T01:59:40.197Z,35.03
2019-03-04T02:01:14.188Z,36.50
2019-03-04T02:02:48.045Z,35.77
2019-03-04T02:04:21.747Z,34.23
2019-03-04T02:05:55.398Z,32.93
2019-03-04T02:07:29.476Z,33.23
2019-03-04T02:09:03.361Z,31.93
2019-03-04T02:10:37.023Z,36.97
2019-03-04T02:12:10.690Z,36.47
2019-03-04T02:13:44.572Z,36.67
2019-03-04T02:15:20.154Z,32.00
2019-03-04T02:16:53.849Z,31.43
2019-03-04T02:18:27.445Z,30.07
2019-03-04T02:20:01.762Z,31.60
2019-03-04T02:21:36.287Z,29.13
2019-03-04T02:23:09.966Z,25.93
2019-03-04T02:24:43.668Z,26.13
2019-03-04T02:26:18.961Z,24.30
2019-03-04T02:27:55.917Z,25.97
2019-03-04T02:29:29.602Z,24.90
2019-03-04T02:31:03.264Z,25.10
2019-03-04T02:32:37.135Z,24.70
2019-03-04T02:34:10.767Z,24.33
2019-03-04T02:35:44.440Z,24.03
2019-03-04T02:37:18.178Z,24.50
2019-03-04T02:38:56.522Z,24.63
2019-03-04T02:40:30.221Z,26.10
2019-03-04T02:42:03.922Z,27.03
2019-03-04T02:43:37.615Z,27.07
2019-03-04T02:45:14.383Z,25.53
2019-03-04T02:46:48.407Z,26.47
2019-03-04T02:48:23.577Z,26.67
2019-03-04T02:49:57.179Z,26.67
2019-03-04T02:51:31.115Z,27.43
2019-03-04T02:53:04.862Z,28.20
2019-03-04T02:54:38.559Z,28.90
2019-03-04T02:56:12.202Z,25.90
2019-03-04T02:57:46.356Z,26.90
2019-03-04T02:59:20.178Z,26.10
2019-03-04T03:00:53.905Z,23.73
2019-03-04T03:02:27.598Z,25.30
2019-03-04T03:04:01.710Z,25.83
2019-03-04T03:05:35.498Z,22.40
2019-03-04T03:07:09.134Z,24.50
2019-03-04T03:08:42.765Z,24.00
2019-03-04T03:10:16.700Z,24.47
2019-03-04T03:11:50.467Z,24.77
2019-03-04T03:13:24.165Z,26.10
2019-03-04T03:14:57.902Z,29.03
2019-03-04T03:16:32.109Z,30.20
2019-03-04T03:18:06.466Z,34.87
2019-03-04T03:19:40.186Z,33.87
2019-03-04T03:21:13.820Z,29.10
2019-03-04T03:22:47.912Z,28.40
2019-03-04T03:24:21.669Z,26.20
2019-03-04T03:25:55.330Z,27.87
2019-03-04T03:27:28.994Z,29.27
2019-03-04T03:29:03.120Z,27.87
2019-03-04T03:30:36.858Z,25.90
2019-03-04T03:32:11.480Z,25.53
2019-03-04T03:33:45.158Z,27.83
2019-03-04T03:35:18.996Z,26.47
2019-03-04T03:36:52.652Z,30.87
2019-03-04T03:38:26.353Z,26.80
2019-03-04T03:40:00.105Z,24.80
2019-03-04T03:41:34.164Z,23.87
2019-03-04T03:43:07.814Z,23.70
2019-03-04T03:44:41.459Z,23.17
2019-03-04T03:46:15.236Z,24.87
2019-03-04T03:47:49.402Z,23.03
2019-03-04T03:49:23.136Z,22.90
2019-03-04T03:50:56.879Z,23.70
2019-03-04T03:52:30.562Z,23.20
2019-03-04T03:54:04.484Z,23.00
2019-03-04T03:55:38.203Z,23.07
2019-03-04T03:57:11.964Z,23.43
2019-03-04T03:58:45.596Z,24.37
2019-03-04T04:00:26.571Z,25.77
2019-03-04T04:02:00.331Z,22.23
2019-03-04T04:03:34.481Z,24.30
2019-03-04T04:05:08.507Z,24.60
2019-03-04T04:06:42.342Z,24.00
2019-03-04T04:08:16.038Z,24.57
2019-03-04T04:09:49.676Z,25.07
2019-03-04T04:11:23.373Z,25.70
2019-03-04T04:12:57.352Z,24.40
2019-03-04T04:14:31.038Z,27.50
2019-03-04T04:16:04.679Z,25.17
2019-03-04T04:17:38.317Z,25.77
2019-03-04T04:19:12.347Z,32.70
2019-03-04T04:20:46.057Z,30.50
2019-03-04T04:22:19.724Z,34.23
2019-03-04T04:23:53.362Z,32.47
2019-03-04T04:25:27.253Z,33.90
2019-03-04T04:27:01.001Z,31.93
2019-03-04T04:28:35.212Z,33.13
2019-03-04T04:30:12.196Z,32.57
2019-03-04T04:31:46.031Z,25.77
2019-03-04T04:33:19.760Z,25.97
2019-03-04T04:34:53.981Z,26.73
2019-03-04T04:36:27.730Z,26.27
2019-03-04T04:38:01.940Z,28.47
2019-03-04T04:39:37.214Z,26.77
2019-03-04T04:41:10.939Z,27.10
2019-03-04T04:42:44.653Z,25.67
2019-03-04T04:44:18.568Z,22.40
2019-03-04T04:45:52.201Z,22.47
2019-03-04T04:47:25.851Z,24.70
2019-03-04T04:48:59.619Z,23.50
2019-03-04T04:50:34.058Z,25.60
2019-03-04T04:52:07.735Z,25.43
2019-03-04T04:53:41.418Z,35.50
2019-03-04T04:55:15.042Z,38.97
2019-03-04T04:56:48.953Z,25.67
2019-03-04T04:58:22.570Z,24.63
2019-03-04T04:59:56.280Z,23.63
2019-03-04T05:01:29.931Z,25.07
2019-03-04T05:03:04.830Z,27.90
2019-03-04T05:04:38.604Z,26.63
2019-03-04T05:06:13.070Z,25.00
2019-03-04T05:07:46.945Z,35.30
2019-03-04T05:09:21.187Z,47.97
2019-03-04T05:10:54.909Z,67.63
2019-03-04T05:12:28.713Z,70.33
2019-03-04T05:14:02.445Z,61.93
2019-03-04T05:15:36.271Z,65.57
2019-03-04T05:17:09.991Z,62.53
2019-03-04T05:18:43.753Z,56.03
2019-03-04T05:20:22.531Z,61.47
2019-03-04T05:21:57.931Z,70.83
2019-03-04T05:23:31.569Z,71.90
2019-03-04T05:25:05.672Z,70.30
2019-03-04T05:26:39.322Z,63.10
2019-03-04T05:28:13.218Z,65.53
2019-03-04T05:29:48.536Z,74.17
2019-03-04T05:31:22.225Z,62.90
2019-03-04T05:32:55.866Z,59.17
2019-03-04T05:34:30.506Z,53.53
2019-03-04T05:36:04.212Z,51.27
2019-03-04T05:37:37.835Z,51.53
2019-03-04T05:39:11.555Z,51.80
2019-03-04T05:40:45.563Z,53.33
2019-03-04T05:42:19.309Z,50.50
2019-03-04T05:43:56.031Z,49.10
2019-03-04T05:45:29.743Z,49.10
2019-03-04T05:47:04.034Z,54.80
2019-03-04T05:48:37.699Z,49.93
2019-03-04T05:50:16.984Z,47.83
2019-03-04T05:51:50.621Z,50.00
2019-03-04T05:53:24.530Z,49.17
2019-03-04T05:54:58.206Z,52.23
2019-03-04T05:56:31.927Z,49.80
2019-03-04T05:58:05.602Z,48.33
2019-03-04T05:59:39.523Z,49.40
2019-03-04T06:01:18.924Z,41.47
2019-03-04T06:02:54.602Z,43.60
2019-03-04T06:04:28.263Z,44.20
2019-03-04T06:06:02.207Z,36.00
2019-03-04T06:07:37.500Z,38.50
2019-03-04T06:09:12.906Z,34.17
2019-03-04T06:10:46.639Z,34.27
2019-03-04T06:12:21.487Z,35.17
2019-03-04T06:13:55.188Z,43.20
2019-03-04T06:15:30.787Z,75.95
2019-03-04T06:17:04.394Z,51.20
2019-03-04T06:18:38.448Z,45.97
2019-03-04T06:20:14.817Z,52.33
2019-03-04T06:21:49.072Z,34.98
2019-03-04T06:23:23.324Z,28.35
2019-03-04T06:24:58.050Z,28.83
2019-03-04T06:26:32.354Z,26.60
2019-03-04T06:28:06.633Z,26.90
2019-03-04T06:29:40.955Z,27.58
2019-03-04T06:31:15.595Z,28.57
2019-03-04T06:32:49.796Z,26.45
2019-03-04T06:34:26.993Z,26.55
2019-03-04T06:36:01.214Z,26.40
2019-03-04T06:37:36.174Z,25.48
2019-03-04T06:39:10.391Z,25.20
2019-03-04T06:40:44.728Z,24.32
2019-03-04T06:42:18.973Z,24.50
2019-03-04T06:43:53.749Z,26.75
2019-03-04T06:45:28.026Z,25.97
2019-03-04T06:47:02.291Z,28.32
2019-03-04T06:48:36.511Z,29.37
2019-03-04T06:50:39.809Z,30.55
2019-03-04T06:52:14.105Z,30.20
2019-03-04T06:54:12.182Z,31.37
2019-03-04T06:56:11.878Z,31.00
2019-03-04T06:57:46.124Z,31.37
2019-03-04T06:59:26.246Z,39.27
2019-03-04T07:01:03.747Z,40.80
2019-03-04T07:02:46.207Z,65.57
2019-03-04T07:04:29.084Z,47.53
2019-03-04T07:06:04.837Z,36.23
2019-03-04T07:07:39.181Z,42.03
2019-03-04T07:09:14.399Z,37.50
2019-03-04T07:10:48.620Z,32.98
2019-03-04T07:12:22.845Z,39.42
2019-03-04T07:13:57.095Z,40.73
2019-03-04T07:15:31.772Z,44.42
2019-03-04T07:17:05.974Z,36.68
2019-03-04T07:18:40.205Z,34.80
2019-03-04T07:20:16.924Z,34.60
2019-03-04T07:21:51.354Z,31.30
2019-03-04T07:23:25.682Z,34.23
2019-03-04T07:24:59.979Z,31.40
2019-03-04T07:26:34.276Z,31.77
2019-03-04T07:28:08.625Z,28.15
2019-03-04T07:29:42.909Z,29.07
2019-03-04T07:31:17.208Z,35.38
2019-03-04T07:32:51.500Z,37.80
2019-03-04T07:34:26.159Z,33.80
2019-03-04T07:36:00.503Z,34.67
2019-03-04T07:37:34.498Z,34.87
2019-03-04T07:39:11.013Z,35.17
2019-03-04T07:40:46.263Z,36.98
2019-03-04T07:42:20.503Z,36.45
2019-03-04T07:43:54.735Z,38.98
2019-03-04T07:45:29.078Z,47.75
2019-03-04T07:47:03.711Z,50.70
2019-03-04T07:48:37.942Z,44.13
2019-03-04T07:50:12.542Z,35.23
2019-03-04T07:51:46.876Z,53.15
2019-03-04T07:53:21.452Z,56.92
2019-03-04T07:54:55.783Z,37.88
2019-03-04T07:56:30.379Z,42.78
2019-03-04T07:58:05.017Z,40.03
2019-03-04T07:59:39.355Z,31.45
2019-03-04T08:01:13.627Z,34.65
2019-03-04T08:02:47.983Z,33.53
2019-03-04T08:04:22.196Z,18.67
2019-03-04T08:05:57.761Z,28.87
2019-03-04T08:07:37.702Z,28.45
2019-03-04T08:09:14.922Z,33.42
2019-03-04T08:11:25.783Z,29.95
2019-03-04T08:13:03.168Z,29.90
2019-03-04T08:14:37.460Z,24.80
2019-03-04T08:16:12.426Z,22.95
2019-03-04T08:17:46.880Z,21.27
2019-03-04T08:19:21.092Z,22.52
2019-03-04T08:20:55.313Z,22.30
2019-03-04T08:22:29.552Z,19.70
2019-03-04T08:24:04.151Z,19.35
2019-03-04T08:25:38.383Z,21.48
2019-03-04T08:27:12.696Z,21.25
2019-03-04T08:28:46.891Z,38.53
2019-03-04T08:30:22.142Z,23.47
2019-03-04T08:31:56.391Z,38.48
2019-03-04T08:33:30.626Z,24.67
2019-03-04T08:35:05.248Z,17.37
2019-03-04T08:36:39.990Z,15.58
2019-03-04T08:38:14.243Z,15.60
2019-03-04T08:39:48.471Z,24.47
2019-03-04T08:41:22.756Z,16.32
2019-03-04T08:42:57.653Z,16.65
2019-03-04T08:44:31.996Z,13.60
2019-03-04T08:46:06.337Z,14.00
2019-03-04T08:47:40.655Z,15.72
2019-03-04T08:49:15.082Z,17.82
2019-03-04T08:50:49.439Z,15.80
2019-03-04T08:52:23.750Z,14.80
2019-03-04T08:53:57.997Z,15.60
2019-03-04T08:55:32.648Z,16.37
2019-03-04T08:57:06.925Z,15.00
2019-03-04T08:58:41.290Z,15.40
2019-03-04T09:00:21.310Z,14.00
2019-03-04T09:01:55.758Z,15.83
2019-03-04T09:03:30.028Z,15.78
2019-03-04T09:05:07.529Z,17.37
2019-03-04T09:06:41.841Z,17.05
2019-03-04T09:08:16.401Z,17.75
2019-03-04T09:09:51.203Z,19.20
2019-03-04T09:11:25.428Z,17.25
2019-03-04T09:12:59.757Z,17.35
2019-03-04T09:14:34.243Z,17.12
2019-03-04T09:16:08.833Z,15.13
2019-03-04T09:17:43.194Z,13.75
2019-03-04T09:19:17.411Z,13.95
2019-03-04T09:20:52.056Z,17.02
2019-03-04T09:22:26.274Z,18.25
2019-03-04T09:24:00.498Z,17.40
2019-03-04T09:25:37.655Z,16.75
2019-03-04T09:27:12.360Z,16.32
2019-03-04T09:28:48.071Z,22.32
2019-03-04T09:30:22.976Z,21.70
2019-03-04T09:31:57.463Z,19.05
2019-03-04T09:33:31.981Z,22.93
2019-03-04T09:35:10.355Z,19.55
2019-03-04T09:36:44.599Z,16.48
2019-03-04T09:38:18.864Z,16.75
2019-03-04T09:39:53.507Z,16.75
2019-03-04T09:41:27.905Z,15.40
2019-03-04T09:43:02.900Z,21.10
2019-03-04T09:44:37.112Z,19.07
2019-03-04T09:46:11.634Z,18.52
2019-03-04T09:47:46.502Z,20.70
2019-03-04T09:49:20.838Z,16.87
2019-03-04T09:50:55.369Z,15.58
2019-03-04T09:52:29.802Z,14.47
2019-03-04T09:54:04.138Z,15.05
2019-03-04T09:55:38.506Z,11.78
2019-03-04T09:57:12.766Z,11.15
2019-03-04T09:58:47.275Z,9.58
2019-03-04T10:00:38.857Z,8.60
2019-03-04T10:02:13.624Z,8.43
2019-03-04T10:03:53.772Z,7.87
2019-03-04T10:05:47.419Z,7.97
2019-03-04T10:07:28.007Z,9.60
2019-03-04T10:09:23.626Z,8.55
2019-03-04T10:11:12.875Z,7.65
2019-03-04T10:13:07.921Z,9.93
2019-03-04T10:14:56.925Z,6.90
2019-03-04T10:16:55.150Z,8.40
2019-03-04T10:18:44.050Z,6.58
2019-03-04T10:20:33.307Z,5.83
2019-03-04T10:22:19.387Z,7.00
2019-03-04T10:24:03.681Z,5.50
2019-03-04T10:25:57.606Z,6.10
2019-03-04T10:27:46.621Z,6.03
2019-03-04T10:29:44.059Z,6.10
2019-03-04T10:31:24.390Z,7.35
2019-03-04T10:33:24.137Z,11.05
2019-03-04T10:35:15.773Z,5.83
2019-03-04T10:37:02.194Z,5.00
2019-03-04T10:38:57.219Z,5.70
2019-03-04T10:40:39.985Z,3.30
2019-03-04T10:42:35.393Z,3.40
2019-03-04T10:44:21.254Z,3.75
2019-03-04T10:46:28.796Z,3.40
2019-03-04T10:48:03.694Z,6.20
2019-03-04T10:49:37.909Z,4.25
2019-03-04T10:51:12.479Z,5.62
2019-03-04T10:52:46.823Z,4.00
2019-03-04T10:54:21.458Z,3.12
2019-03-04T10:55:55.675Z,2.15
2019-03-04T10:57:29.972Z,2.92
2019-03-04T10:59:04.207Z,3.12
2019-03-04T11:00:38.899Z,3.87
2019-03-04T11:02:13.135Z,5.08
2019-03-04T11:03:47.336Z,1.75
2019-03-04T11:05:21.554Z,1.95
2019-03-04T11:06:56.566Z,2.10
2019-03-04T11:08:30.779Z,1.52
2019-03-04T11:10:07.938Z,2.58
2019-03-04T11:11:44.698Z,2.30
2019-03-04T11:13:19.531Z,1.80
2019-03-04T11:14:55.429Z,2.05
2019-03-04T11:16:29.649Z,2.12
2019-03-04T11:18:03.954Z,2.08
2019-03-04T11:19:38.395Z,7.08
2019-03-04T11:21:12.668Z,3.22
2019-03-04T11:22:47.423Z,3.85
2019-03-04T11:24:21.703Z,2.05
2019-03-04T11:25:56.270Z,1.67
2019-03-04T11:27:31.954Z,2.02
2019-03-04T11:29:06.385Z,1.95
2019-03-04T11:30:41.019Z,2.50
2019-03-04T11:32:15.764Z,2.65
2019-03-04T11:33:50.040Z,2.83
2019-03-04T11:35:24.320Z,2.17
2019-03-04T11:37:00.020Z,2.47
2019-03-04T11:38:40.393Z,1.75
2019-03-04T11:40:31.128Z,3.67
2019-03-04T11:42:05.362Z,3.70
2019-03-04T11:43:40.637Z,2.60
2019-03-04T11:45:17.597Z,2.75
2019-03-04T11:46:51.863Z,2.58
2019-03-04T11:48:26.067Z,3.10
2019-03-04T11:50:00.299Z,4.97
2019-03-04T11:51:34.848Z,2.33
2019-03-04T11:53:09.095Z,5.78
2019-03-04T11:54:44.795Z,5.17
2019-03-04T11:56:19.090Z,3.58
2019-03-04T11:57:53.922Z,3.42
2019-03-04T11:59:28.206Z,6.08
2019-03-04T12:01:12.917Z,5.53
2019-03-04T12:02:47.210Z,5.22
2019-03-04T12:04:21.822Z,5.22
2019-03-04T12:05:56.106Z,3.90
2019-03-04T12:07:30.416Z,3.10
2019-03-04T12:09:07.636Z,3.20
2019-03-04T12:10:42.542Z,3.65
2019-03-04T12:12:16.901Z,4.30
2019-03-04T12:13:51.105Z,4.67
2019-03-04T12:15:25.399Z,4.62
2019-03-04T12:17:00.194Z,4.53
2019-03-04T12:18:34.575Z,4.75
2019-03-04T12:20:11.589Z,4.62
2019-03-04T12:21:47.826Z,7.83
2019-03-04T12:23:25.185Z,6.70
2019-03-04T12:24:59.403Z,4.70
2019-03-04T12:26:33.599Z,5.33
2019-03-04T12:28:07.810Z,3.45
2019-03-04T12:29:42.567Z,3.72
2019-03-04T12:31:16.854Z,3.50
2019-03-04T12:32:52.450Z,4.97
2019-03-04T12:34:26.879Z,6.08
2019-03-04T12:36:01.656Z,3.47
2019-03-04T12:37:35.862Z,3.55
2019-03-04T12:39:11.771Z,5.50
2019-03-04T12:40:46.039Z,42.62
2019-03-04T12:42:20.460Z,7.83
2019-03-04T12:43:54.659Z,4.60
2019-03-04T12:45:34.356Z,2.15
2019-03-04T12:47:04.987Z,8.70
2019-03-04T12:48:39.427Z,5.17
2019-03-04T12:50:33.325Z,11.33
2019-03-04T12:52:07.658Z,3.98
2019-03-04T12:53:42.222Z,4.33
2019-03-04T12:55:16.519Z,2.70
2019-03-04T12:56:50.736Z,3.47
2019-03-04T12:58:25.005Z,4.97
2019-03-04T12:59:59.663Z,7.08
2019-03-04T13:01:33.966Z,9.88
2019-03-04T13:03:09.814Z,6.45
2019-03-04T13:04:44.109Z,4.12
2019-03-04T13:06:18.755Z,2.75
2019-03-04T13:07:53.053Z,5.20
2019-03-04T13:09:27.344Z,3.87
2019-03-04T13:11:01.597Z,16.73
2019-03-04T13:12:36.718Z,10.25
2019-03-04T13:14:10.937Z,5.33
2019-03-04T13:15:45.672Z,3.55
2019-03-04T13:17:19.928Z,3.42
2019-03-04T13:18:54.557Z,2.45
2019-03-04T13:20:30.381Z,2.70
2019-03-04T13:22:08.435Z,2.20
2019-03-04T13:23:40.496Z,2.40
2019-03-04T13:25:15.800Z,4.45
2019-03-04T13:26:50.037Z,7.22
2019-03-04T13:28:24.222Z,4.05
2019-03-04T13:29:58.495Z,3.20
2019-03-04T13:31:32.993Z,4.12
2019-03-04T13:33:07.189Z,4.08
2019-03-04T13:34:41.470Z,6.05
2019-03-04T13:36:15.778Z,5.45
2019-03-04T13:37:50.823Z,3.83
2019-03-04T13:39:25.112Z,4.47
2019-03-04T13:40:59.396Z,5.47
2019-03-04T13:42:33.729Z,3.65
2019-03-04T13:44:09.368Z,2.58
2019-03-04T13:45:43.659Z,4.28
2019-03-04T13:47:19.915Z,2.55
2019-03-04T13:48:55.664Z,1.70
2019-03-04T13:50:35.129Z,2.47
2019-03-04T13:52:09.923Z,3.17
2019-03-04T13:53:44.335Z,2.27
2019-03-04T13:55:19.980Z,2.42
2019-03-04T13:56:54.608Z,2.27
2019-03-04T13:58:29.203Z,2.58
2019-03-04T14:00:04.986Z,3.15
2019-03-04T14:01:39.214Z,9.60
2019-03-04T14:03:14.875Z,8.73
2019-03-04T14:04:49.142Z,6.33
2019-03-04T14:06:23.352Z,8.50
2019-03-04T14:07:57.592Z,8.20
2019-03-04T14:09:32.185Z,9.23
2019-03-04T14:11:06.449Z,6.35
2019-03-04T14:12:40.656Z,8.88
2019-03-04T14:14:15.344Z,4.00
2019-03-04T14:15:58.036Z,5.90
2019-03-04T14:17:32.316Z,4.10
2019-03-04T14:19:06.598Z,4.87
2019-03-04T14:20:40.904Z,7.87
2019-03-04T14:22:15.470Z,12.85
2019-03-04T14:23:49.716Z,12.82
2019-03-04T14:25:24.017Z,12.20
2019-03-04T14:26:58.265Z,9.35
2019-03-04T14:28:32.813Z,12.90
2019-03-04T14:30:12.603Z,6.72
2019-03-04T14:31:46.811Z,5.25
2019-03-04T14:33:21.095Z,4.62
2019-03-04T14:34:55.898Z,3.90
2019-03-04T14:36:30.100Z,4.33
2019-03-04T14:38:04.304Z,5.53
2019-03-04T14:39:38.649Z,5.30
2019-03-04T14:41:13.373Z,5.85
2019-03-04T14:42:47.666Z,4.50
2019-03-04T14:44:24.995Z,5.05
2019-03-04T14:46:00.778Z,6.33
2019-03-04T14:47:35.497Z,5.55
2019-03-04T14:49:09.811Z,13.68
2019-03-04T14:50:44.107Z,10.98
2019-03-04T14:52:18.397Z,7.50
2019-03-04T14:53:52.877Z,6.22
2019-03-04T14:55:32.130Z,9.70
2019-03-04T14:57:06.448Z,6.33
2019-03-04T14:58:40.662Z,4.28
2019-03-04T15:00:30.802Z,3.42
2019-03-04T15:02:05.030Z,4.80
2019-03-04T15:03:39.361Z,6.60
2019-03-04T15:05:14.480Z,8.18
2019-03-04T15:06:49.354Z,9.45
2019-03-04T15:08:23.630Z,11.78
2019-03-04T15:09:57.889Z,13.98
2019-03-04T15:11:32.190Z,10.90
2019-03-04T15:13:06.909Z,14.40
2019-03-04T15:14:43.331Z,17.35
2019-03-04T15:16:17.194Z,36.53
2019-03-04T15:17:51.490Z,31.23
2019-03-04T15:19:25.895Z,48.75
2019-03-04T15:21:00.226Z,40.43
2019-03-04T15:22:35.358Z,57.70
2019-03-04T15:24:09.978Z,126.82
2019-03-04T15:25:45.495Z,94.97
2019-03-04T15:27:19.775Z,73.78
2019-03-04T15:28:54.112Z,45.73
2019-03-04T15:30:28.411Z,55.40
2019-03-04T15:32:02.943Z,33.25
2019-03-04T15:33:37.164Z,24.12
2019-03-04T15:35:11.401Z,24.02
2019-03-04T15:36:45.623Z,22.82
2019-03-04T15:38:21.001Z,25.32
2019-03-04T15:39:55.202Z,15.90
2019-03-04T15:41:29.460Z,16.02
2019-03-04T15:43:03.716Z,16.12
2019-03-04T15:44:39.070Z,20.77
2019-03-04T15:46:13.401Z,17.55
2019-03-04T15:47:47.788Z,22.22
2019-03-04T15:49:22.099Z,31.75
2019-03-04T15:50:56.666Z,23.65
2019-03-04T15:52:30.911Z,23.00
2019-03-04T15:54:05.212Z,22.77
2019-03-04T15:55:39.558Z,22.75
2019-03-04T15:57:14.171Z,20.62
2019-03-04T15:58:48.493Z,22.70
2019-03-04T16:00:22.918Z,19.02
2019-03-04T16:02:00.133Z,26.97
2019-03-04T16:03:36.786Z,27.02
2019-03-04T16:05:13.667Z,51.35
2019-03-04T16:06:47.979Z,49.00
2019-03-04T16:08:22.340Z,55.98
2019-03-04T16:09:58.434Z,43.52
2019-03-04T16:11:32.934Z,40.05
2019-03-04T16:13:08.573Z,54.27
2019-03-04T16:14:42.950Z,60.90
2019-03-04T16:16:17.680Z,47.35
2019-03-04T16:17:53.536Z,55.40
2019-03-04T16:19:27.943Z,44.23
2019-03-04T16:21:02.178Z,44.65
2019-03-04T16:22:37.232Z,40.52
2019-03-04T16:24:11.567Z,35.83
2019-03-04T16:25:45.810Z,25.08
2019-03-04T16:27:20.145Z,51.18
2019-03-04T16:28:54.926Z,50.83
2019-03-04T16:30:29.229Z,50.12
2019-03-04T16:32:03.505Z,51.05
2019-03-04T16:33:39.410Z,44.05
2019-03-04T16:35:14.214Z,41.13
2019-03-04T16:36:48.544Z,52.53
2019-03-04T16:38:22.916Z,47.70
2019-03-04T16:39:57.128Z,56.77
2019-03-04T16:41:32.212Z,53.48
2019-03-04T16:43:07.844Z,50.78
2019-03-04T16:44:42.160Z,55.75
2019-03-04T16:46:17.337Z,47.73
2019-03-04T16:47:51.783Z,87.27
2019-03-04T16:49:26.704Z,88.22
2019-03-04T16:51:00.934Z,89.97
2019-03-04T16:52:35.231Z,81.40
2019-03-04T16:54:10.051Z,86.08
2019-03-04T16:55:45.039Z,89.40
2019-03-04T16:57:19.354Z,98.07
2019-03-04T16:58:53.619Z,70.35
2019-03-04T17:00:31.180Z,42.10
2019-03-04T17:02:05.621Z,36.80
2019-03-04T17:03:39.849Z,36.00
2019-03-04T17:05:16.592Z,62.15
2019-03-04T17:06:51.188Z,20.02
2019-03-04T17:08:26.487Z,23.73
2019-03-04T17:10:00.786Z,21.42
2019-03-04T17:11:35.097Z,25.70
2019-03-04T17:13:09.858Z,31.40
2019-03-04T17:14:44.137Z,46.95
2019-03-04T17:16:18.428Z,45.28
2019-03-04T17:17:55.278Z,41.88
2019-03-04T17:19:29.770Z,45.45
2019-03-04T17:21:04.565Z,45.33
2019-03-04T17:22:38.906Z,36.08
2019-03-04T17:24:12.621Z,46.60
2019-03-04T17:25:49.245Z,192.18
2019-03-04T17:27:25.380Z,69.40
2019-03-04T17:29:02.439Z,42.45
2019-03-04T17:30:37.832Z,58.17
2019-03-04T17:32:12.349Z,38.92
2019-03-04T17:33:46.663Z,53.52
2019-03-04T17:35:22.362Z,48.25
2019-03-04T17:36:56.064Z,56.97
2019-03-04T17:38:30.515Z,50.63
2019-03-04T17:40:06.901Z,63.05
2019-03-04T17:41:41.121Z,60.78
2019-03-04T17:43:15.373Z,54.65
2019-03-04T17:44:49.926Z,50.28
2019-03-04T17:46:24.210Z,44.05
2019-03-04T17:48:00.757Z,48.92
2019-03-04T17:49:35.324Z,52.03
2019-03-04T17:51:10.016Z,33.30
2019-03-04T17:52:44.255Z,31.40
2019-03-04T17:54:18.490Z,52.80
2019-03-04T17:55:52.119Z,54.13
2019-03-04T17:57:26.434Z,58.70
2019-03-04T17:59:00.742Z,51.60
2019-03-04T18:00:37.729Z,41.43
2019-03-04T18:02:11.997Z,27.58
2019-03-04T18:03:45.935Z,36.27
2019-03-04T18:05:20.218Z,64.45
2019-03-04T18:06:54.534Z,43.33
2019-03-04T18:08:28.949Z,30.37
2019-03-04T18:10:03.529Z,36.42
2019-03-04T18:11:37.848Z,28.32
2019-03-04T18:13:14.713Z,38.33
2019-03-04T18:14:49.012Z,38.10
2019-03-04T18:16:23.609Z,42.43
2019-03-04T18:17:57.297Z,41.70
2019-03-04T18:19:31.052Z,30.37
2019-03-04T18:21:06.334Z,38.23
2019-03-04T18:22:40.936Z,26.70
2019-03-04T18:24:16.182Z,28.40
2019-03-04T18:25:59.341Z,28.98
2019-03-04T18:27:33.645Z,66.33
2019-03-04T18:29:16.587Z,49.30
2019-03-04T18:31:10.146Z,52.13
2019-03-04T18:33:08.165Z,70.95
2019-03-04T18:35:00.986Z,71.53
2019-03-04T18:36:40.491Z,74.40
2019-03-04T18:38:38.186Z,95.30
2019-03-04T18:40:33.704Z,94.28
2019-03-04T18:42:32.582Z,86.30
2019-03-04T18:44:31.811Z,62.23
2019-03-04T18:46:31.511Z,60.60
2019-03-04T18:48:10.838Z,64.00
2019-03-04T18:49:44.701Z,71.63
2019-03-04T18:51:18.414Z,62.60
2019-03-04T18:52:54.277Z,24.87
2019-03-04T18:54:30.205Z,25.52
2019-03-04T18:56:04.429Z,25.75
2019-03-04T18:57:38.129Z,23.13
2019-03-04T18:59:12.110Z,17.93
2019-03-04T19:00:45.727Z,19.37
2019-03-04T19:02:19.490Z,23.87
2019-03-04T19:03:53.256Z,20.03
2019-03-04T19:05:27.337Z,23.97
2019-03-04T19:07:00.982Z,33.30
2019-03-04T19:08:34.689Z,49.07
2019-03-04T19:10:11.112Z,28.77
2019-03-04T19:11:45.154Z,23.63
2019-03-04T19:13:18.782Z,23.97
2019-03-04T19:14:52.475Z,20.43
2019-03-04T19:16:26.125Z,17.33
2019-03-04T19:17:59.979Z,18.10
2019-03-04T19:19:33.686Z,16.70
2019-03-04T19:21:07.452Z,17.00
2019-03-04T19:22:41.154Z,19.33
2019-03-04T19:24:14.962Z,24.77
2019-03-04T19:25:49.892Z,24.02
2019-03-04T19:27:23.575Z,23.73
2019-03-04T19:28:58.516Z,22.93
2019-03-04T19:30:32.446Z,22.70
2019-03-04T19:32:06.851Z,19.67
2019-03-04T19:33:42.041Z,31.30
2019-03-04T19:35:16.263Z,31.70
2019-03-04T19:36:51.524Z,33.83
2019-03-04T19:38:25.689Z,33.47
2019-03-04T19:39:59.430Z,26.20
2019-03-04T19:41:33.239Z,32.83
2019-03-04T19:43:07.674Z,41.73
2019-03-04T19:44:41.359Z,41.60
2019-03-04T19:46:15.011Z,56.17
2019-03-04T19:47:49.515Z,50.48
2019-03-04T19:49:24.430Z,51.33
2019-03-04T19:50:58.722Z,43.87
2019-03-04T19:52:32.422Z,32.60
2019-03-04T19:54:06.201Z,34.00
2019-03-04T19:55:40.136Z,31.57
2019-03-04T19:57:17.605Z,30.07
2019-03-04T19:58:51.875Z,22.15
2019-03-04T20:00:27.461Z,16.93
2019-03-04T20:02:02.220Z,16.30
2019-03-04T20:03:36.636Z,16.30
2019-03-04T20:05:11.122Z,14.23
2019-03-04T20:06:44.768Z,14.63
2019-03-04T20:08:20.751Z,16.17
2019-03-04T20:09:56.400Z,16.73
2019-03-04T20:11:29.834Z,14.67
2019-03-04T20:13:04.238Z,13.07
2019-03-04T20:14:38.225Z,15.17
2019-03-04T20:16:13.215Z,13.80
2019-03-04T20:17:47.000Z,11.90
2019-03-04T20:19:20.648Z,12.93
2019-03-04T20:20:54.460Z,12.23
2019-03-04T20:22:28.192Z,27.43
2019-03-04T20:24:01.874Z,38.20
2019-03-04T20:25:35.593Z,48.50
2019-03-04T20:27:09.424Z,48.00
2019-03-04T20:28:43.175Z,52.90
2019-03-04T20:30:21.956Z,53.20
2019-03-04T20:31:55.726Z,41.73
2019-03-04T20:33:30.370Z,38.93
2019-03-04T20:35:04.791Z,19.07
2019-03-04T20:36:38.511Z,17.43
2019-03-04T20:38:14.971Z,19.40
2019-03-04T20:39:48.839Z,15.77